sensor_id;sensor_type;location;lat;lon;timestamp;temperature;humidity
63202;DHT22;49296;48.188;11.566;2023-11-21T00:01:59;8.14;82.67
63202;DHT22;49296;48.188;11.566;2023-11-21T00:04:25;8.22;82.73
63202;DHT22;49296;48.188;11.566;2023-11-21T00:06:54;8.12;82.62
63202;DHT22;49296;48.188;11.566;2023-11-21T00:09:22;8.14;82.88
63202;DHT22;49296;48.188;11.566;2023-11-21T00:11:48;7.99;83.09
63202;DHT22;49296;48.188;11.566;2023-11-21T00:14:14;8.12;83.04
63202;DHT22;49296;48.188;11.566;2023-11-21T00:16:41;8.03;82.69
63202;DHT22;49296;48.188;11.566;2023-11-21T00:19:07;7.90;82.97
63202;DHT22;49296;48.188;11.566;2023-11-21T00:21:34;7.92;83.20
63202;DHT22;49296;48.188;11.566;2023-11-21T00:24:00;7.75;83.71
63202;DHT22;49296;48.188;11.566;2023-11-21T00:26:28;7.68;84.15
63202;DHT22;49296;48.188;11.566;2023-11-21T00:28:56;7.77;84.20
63202;DHT22;49296;48.188;11.566;2023-11-21T00:31:22;7.61;84.36
63202;DHT22;49296;48.188;11.566;2023-11-21T00:33:49;7.78;84.07
63202;DHT22;49296;48.188;11.566;2023-11-21T00:36:16;7.77;83.62
63202;DHT22;49296;48.188;11.566;2023-11-21T00:38:42;7.82;83.95
63202;DHT22;49296;48.188;11.566;2023-11-21T00:41:09;7.96;83.81
63202;DHT22;49296;48.188;11.566;2023-11-21T00:43:36;8.19;83.48
63202;DHT22;49296;48.188;11.566;2023-11-21T00:46:03;8.10;83.20
63202;DHT22;49296;48.188;11.566;2023-11-21T00:48:30;8.17;82.89
63202;DHT22;49296;48.188;11.566;2023-11-21T00:50:56;8.24;83.02
63202;DHT22;49296;48.188;11.566;2023-11-21T00:53:23;8.29;82.66
63202;DHT22;49296;48.188;11.566;2023-11-21T00:55:49;8.31;82.33
63202;DHT22;49296;48.188;11.566;2023-11-21T00:58:17;8.36;82.36
63202;DHT22;49296;48.188;11.566;2023-11-21T01:00:45;8.51;81.95
63202;DHT22;49296;48.188;11.566;2023-11-21T01:03:13;8.47;81.55
63202;DHT22;49296;48.188;11.566;2023-11-21T01:05:39;8.41;81.74
63202;DHT22;49296;48.188;11.566;2023-11-21T01:08:06;8.23;82.40
63202;DHT22;49296;48.188;11.566;2023-11-21T01:10:32;8.34;81.91
63202;DHT22;49296;48.188;11.566;2023-11-21T01:12:59;8.47;81.70
63202;DHT22;49296;48.188;11.566;2023-11-21T01:15:25;8.67;81.55
63202;DHT22;49296;48.188;11.566;2023-11-21T01:17:53;8.59;81.59
63202;DHT22;49296;48.188;11.566;2023-11-21T01:20:20;8.68;81.63
63202;DHT22;49296;48.188;11.566;2023-11-21T01:22:46;8.79;81.38
63202;DHT22;49296;48.188;11.566;2023-11-21T01:25:14;8.71;81.35
63202;DHT22;49296;48.188;11.566;2023-11-21T01:27:41;8.64;81.63
63202;DHT22;49296;48.188;11.566;2023-11-21T01:30:08;8.62;81.48
63202;DHT22;49296;48.188;11.566;2023-11-21T01:32:35;8.72;81.38
63202;DHT22;49296;48.188;11.566;2023-11-21T01:35:03;8.71;81.41
63202;DHT22;49296;48.188;11.566;2023-11-21T01:37:31;8.51;81.58
63202;DHT22;49296;48.188;11.566;2023-11-21T01:39:58;8.33;82.06
63202;DHT22;49296;48.188;11.566;2023-11-21T01:42:24;8.40;82.08
63202;DHT22;49296;48.188;11.566;2023-11-21T01:44:50;8.37;81.84
63202;DHT22;49296;48.188;11.566;2023-11-21T01:47:17;8.31;82.06
63202;DHT22;49296;48.188;11.566;2023-11-21T01:49:44;8.31;82.25
63202;DHT22;49296;48.188;11.566;2023-11-21T01:52:12;8.30;82.22
63202;DHT22;49296;48.188;11.566;2023-11-21T01:54:40;8.33;82.13
63202;DHT22;49296;48.188;11.566;2023-11-21T01:57:07;8.33;82.02
63202;DHT22;49296;48.188;11.566;2023-11-21T01:59:34;8.24;82.24
63202;DHT22;49296;48.188;11.566;2023-11-21T02:02:02;8.36;82.19
63202;DHT22;49296;48.188;11.566;2023-11-21T02:04:30;8.51;81.86
63202;DHT22;49296;48.188;11.566;2023-11-21T02:06:57;8.40;81.65
63202;DHT22;49296;48.188;11.566;2023-11-21T02:09:26;8.48;80.79
63202;DHT22;49296;48.188;11.566;2023-11-21T02:11:52;8.36;80.82
63202;DHT22;49296;48.188;11.566;2023-11-21T02:14:19;8.34;81.20
63202;DHT22;49296;48.188;11.566;2023-11-21T02:16:47;8.17;81.23
63202;DHT22;49296;48.188;11.566;2023-11-21T02:19:15;8.10;81.47
63202;DHT22;49296;48.188;11.566;2023-11-21T02:21:44;8.16;81.58
63202;DHT22;49296;48.188;11.566;2023-11-21T02:24:13;8.33;81.74
63202;DHT22;49296;48.188;11.566;2023-11-21T02:26:39;8.23;81.86
63202;DHT22;49296;48.188;11.566;2023-11-21T02:29:06;8.13;82.48
63202;DHT22;49296;48.188;11.566;2023-11-21T02:31:35;8.05;82.81
63202;DHT22;49296;48.188;11.566;2023-11-21T02:34:03;8.00;83.34
63202;DHT22;49296;48.188;11.566;2023-11-21T02:36:30;8.12;83.30
63202;DHT22;49296;48.188;11.566;2023-11-21T02:38:57;8.07;83.54
63202;DHT22;49296;48.188;11.566;2023-11-21T02:41:24;8.23;83.47
63202;DHT22;49296;48.188;11.566;2023-11-21T02:43:51;8.16;83.50
63202;DHT22;49296;48.188;11.566;2023-11-21T02:46:17;8.10;83.42
63202;DHT22;49296;48.188;11.566;2023-11-21T02:48:44;8.06;83.32
63202;DHT22;49296;48.188;11.566;2023-11-21T02:51:10;8.07;83.16
63202;DHT22;49296;48.188;11.566;2023-11-21T02:53:37;8.05;83.01
63202;DHT22;49296;48.188;11.566;2023-11-21T02:56:04;8.09;83.30
63202;DHT22;49296;48.188;11.566;2023-11-21T02:58:32;8.14;82.96
63202;DHT22;49296;48.188;11.566;2023-11-21T03:00:58;8.10;82.71
63202;DHT22;49296;48.188;11.566;2023-11-21T03:03:25;7.97;83.24
63202;DHT22;49296;48.188;11.566;2023-11-21T03:05:51;8.00;83.27
63202;DHT22;49296;48.188;11.566;2023-11-21T03:08:18;8.17;83.07
63202;DHT22;49296;48.188;11.566;2023-11-21T03:10:44;8.22;82.86
63202;DHT22;49296;48.188;11.566;2023-11-21T03:13:11;8.19;82.81
63202;DHT22;49296;48.188;11.566;2023-11-21T03:15:39;8.03;82.99
63202;DHT22;49296;48.188;11.566;2023-11-21T03:18:05;8.20;83.24
63202;DHT22;49296;48.188;11.566;2023-11-21T03:20:33;8.27;83.14
63202;DHT22;49296;48.188;11.566;2023-11-21T03:23:00;8.27;83.03
63202;DHT22;49296;48.188;11.566;2023-11-21T03:25:26;8.38;82.82
63202;DHT22;49296;48.188;11.566;2023-11-21T03:27:53;8.26;83.21
63202;DHT22;49296;48.188;11.566;2023-11-21T03:30:19;8.06;83.34
63202;DHT22;49296;48.188;11.566;2023-11-21T03:32:47;8.09;83.36
63202;DHT22;49296;48.188;11.566;2023-11-21T03:35:13;8.07;83.24
63202;DHT22;49296;48.188;11.566;2023-11-21T03:37:40;7.97;83.38
63202;DHT22;49296;48.188;11.566;2023-11-21T03:40:08;8.00;83.50
63202;DHT22;49296;48.188;11.566;2023-11-21T03:42:34;8.05;83.22
63202;DHT22;49296;48.188;11.566;2023-11-21T03:45:01;8.20;83.34
63202;DHT22;49296;48.188;11.566;2023-11-21T03:47:28;8.19;83.40
63202;DHT22;49296;48.188;11.566;2023-11-21T03:49:55;8.13;83.18
63202;DHT22;49296;48.188;11.566;2023-11-21T03:52:22;8.10;83.43
63202;DHT22;49296;48.188;11.566;2023-11-21T03:54:48;8.03;83.27
63202;DHT22;49296;48.188;11.566;2023-11-21T03:57:15;8.06;83.17
63202;DHT22;49296;48.188;11.566;2023-11-21T03:59:41;8.03;83.11
63202;DHT22;49296;48.188;11.566;2023-11-21T04:02:08;7.96;83.22
63202;DHT22;49296;48.188;11.566;2023-11-21T04:04:34;7.96;83.21
63202;DHT22;49296;48.188;11.566;2023-11-21T04:07:02;7.82;83.38
63202;DHT22;49296;48.188;11.566;2023-11-21T04:09:29;7.88;83.37
63202;DHT22;49296;48.188;11.566;2023-11-21T04:11:55;7.93;83.23
63202;DHT22;49296;48.188;11.566;2023-11-21T04:14:22;7.99;83.01
63202;DHT22;49296;48.188;11.566;2023-11-21T04:16:48;8.09;82.66
63202;DHT22;49296;48.188;11.566;2023-11-21T04:19:15;7.90;82.94
63202;DHT22;49296;48.188;11.566;2023-11-21T04:21:42;7.81;83.25
63202;DHT22;49296;48.188;11.566;2023-11-21T04:24:10;7.79;83.20
63202;DHT22;49296;48.188;11.566;2023-11-21T04:26:36;7.70;83.46
63202;DHT22;49296;48.188;11.566;2023-11-21T04:29:03;7.92;83.09
63202;DHT22;49296;48.188;11.566;2023-11-21T04:31:29;7.99;82.83
63202;DHT22;49296;48.188;11.566;2023-11-21T04:33:56;7.89;82.78
63202;DHT22;49296;48.188;11.566;2023-11-21T04:36:22;8.02;82.91
63202;DHT22;49296;48.188;11.566;2023-11-21T04:38:49;8.22;82.59
63202;DHT22;49296;48.188;11.566;2023-11-21T04:41:16;8.06;82.86
63202;DHT22;49296;48.188;11.566;2023-11-21T04:43:43;8.07;82.77
63202;DHT22;49296;48.188;11.566;2023-11-21T04:46:09;7.89;82.82
63202;DHT22;49296;48.188;11.566;2023-11-21T04:48:36;7.93;83.03
63202;DHT22;49296;48.188;11.566;2023-11-21T04:51:02;7.86;83.00
63202;DHT22;49296;48.188;11.566;2023-11-21T04:53:29;7.62;83.49
63202;DHT22;49296;48.188;11.566;2023-11-21T04:55:55;7.64;83.41
63202;DHT22;49296;48.188;11.566;2023-11-21T04:58:23;7.61;83.72
63202;DHT22;49296;48.188;11.566;2023-11-21T05:00:50;7.54;83.74
63202;DHT22;49296;48.188;11.566;2023-11-21T05:03:16;7.60;83.68
63202;DHT22;49296;48.188;11.566;2023-11-21T05:05:42;7.60;83.76
63202;DHT22;49296;48.188;11.566;2023-11-21T05:08:09;7.57;83.70
63202;DHT22;49296;48.188;11.566;2023-11-21T05:10:35;7.55;83.70
63202;DHT22;49296;48.188;11.566;2023-11-21T05:13:03;7.55;83.76
63202;DHT22;49296;48.188;11.566;2023-11-21T05:15:31;7.74;83.35
63202;DHT22;49296;48.188;11.566;2023-11-21T05:17:57;7.74;83.38
63202;DHT22;49296;48.188;11.566;2023-11-21T05:20:25;7.75;83.26
63202;DHT22;49296;48.188;11.566;2023-11-21T05:22:51;7.60;83.44
63202;DHT22;49296;48.188;11.566;2023-11-21T05:25:18;7.67;83.49
63202;DHT22;49296;48.188;11.566;2023-11-21T05:27:44;7.79;83.38
63202;DHT22;49296;48.188;11.566;2023-11-21T05:30:11;7.72;83.37
63202;DHT22;49296;48.188;11.566;2023-11-21T05:32:39;7.60;83.33
63202;DHT22;49296;48.188;11.566;2023-11-21T05:35:07;7.61;83.69
63202;DHT22;49296;48.188;11.566;2023-11-21T05:37:37;7.67;83.66
63202;DHT22;49296;48.188;11.566;2023-11-21T05:40:04;7.64;83.52
63202;DHT22;49296;48.188;11.566;2023-11-21T05:42:31;7.77;83.34
63202;DHT22;49296;48.188;11.566;2023-11-21T05:44:57;7.65;83.27
63202;DHT22;49296;48.188;11.566;2023-11-21T05:47:24;7.57;83.65
63202;DHT22;49296;48.188;11.566;2023-11-21T05:49:52;7.58;83.50
63202;DHT22;49296;48.188;11.566;2023-11-21T05:52:19;7.65;83.70
63202;DHT22;49296;48.188;11.566;2023-11-21T05:54:46;7.72;83.45
63202;DHT22;49296;48.188;11.566;2023-11-21T05:57:12;7.62;83.51
63202;DHT22;49296;48.188;11.566;2023-11-21T05:59:39;7.55;83.59
63202;DHT22;49296;48.188;11.566;2023-11-21T06:02:05;7.57;83.64
63202;DHT22;49296;48.188;11.566;2023-11-21T06:04:33;7.65;83.57
63202;DHT22;49296;48.188;11.566;2023-11-21T06:07:00;7.50;83.65
63202;DHT22;49296;48.188;11.566;2023-11-21T06:09:27;7.58;83.55
63202;DHT22;49296;48.188;11.566;2023-11-21T06:11:53;7.47;83.69
63202;DHT22;49296;48.188;11.566;2023-11-21T06:14:19;7.42;83.70
63202;DHT22;49296;48.188;11.566;2023-11-21T06:16:47;7.53;83.61
63202;DHT22;49296;48.188;11.566;2023-11-21T06:19:13;7.53;83.54
63202;DHT22;49296;48.188;11.566;2023-11-21T06:21:40;7.46;83.45
63202;DHT22;49296;48.188;11.566;2023-11-21T06:24:07;7.46;83.44
63202;DHT22;49296;48.188;11.566;2023-11-21T06:26:34;7.43;83.25
63202;DHT22;49296;48.188;11.566;2023-11-21T06:29:00;7.43;83.31
63202;DHT22;49296;48.188;11.566;2023-11-21T06:31:28;7.51;83.00
63202;DHT22;49296;48.188;11.566;2023-11-21T06:33:54;7.46;82.93
63202;DHT22;49296;48.188;11.566;2023-11-21T06:36:20;7.42;83.06
63202;DHT22;49296;48.188;11.566;2023-11-21T06:38:47;7.44;83.02
63202;DHT22;49296;48.188;11.566;2023-11-21T06:41:15;7.40;82.97
63202;DHT22;49296;48.188;11.566;2023-11-21T06:43:42;7.48;82.74
63202;DHT22;49296;48.188;11.566;2023-11-21T06:46:11;7.31;82.52
63202;DHT22;49296;48.188;11.566;2023-11-21T06:48:39;7.38;82.75
63202;DHT22;49296;48.188;11.566;2023-11-21T06:51:06;7.28;82.85
63202;DHT22;49296;48.188;11.566;2023-11-21T06:53:32;7.23;83.00
63202;DHT22;49296;48.188;11.566;2023-11-21T06:55:59;7.28;82.88
63202;DHT22;49296;48.188;11.566;2023-11-21T06:58:27;7.27;82.92
63202;DHT22;49296;48.188;11.566;2023-11-21T07:00:53;7.31;82.78
63202;DHT22;49296;48.188;11.566;2023-11-21T07:03:19;7.38;82.84
63202;DHT22;49296;48.188;11.566;2023-11-21T07:05:46;7.48;82.45
63202;DHT22;49296;48.188;11.566;2023-11-21T07:08:12;7.64;82.27
63202;DHT22;49296;48.188;11.566;2023-11-21T07:10:39;7.62;82.12
63202;DHT22;49296;48.188;11.566;2023-11-21T07:13:05;7.72;81.98
63202;DHT22;49296;48.188;11.566;2023-11-21T07:15:38;7.58;82.21
63202;DHT22;49296;48.188;11.566;2023-11-21T07:18:05;7.60;82.08
63202;DHT22;49296;48.188;11.566;2023-11-21T07:20:33;7.68;81.99
63202;DHT22;49296;48.188;11.566;2023-11-21T07:22:59;7.55;82.14
63202;DHT22;49296;48.188;11.566;2023-11-21T07:25:26;7.43;82.42
63202;DHT22;49296;48.188;11.566;2023-11-21T07:27:52;7.54;82.27
63202;DHT22;49296;48.188;11.566;2023-11-21T07:30:20;7.53;82.33
63202;DHT22;49296;48.188;11.566;2023-11-21T07:32:49;7.54;82.37
63202;DHT22;49296;48.188;11.566;2023-11-21T07:35:15;7.62;82.36
63202;DHT22;49296;48.188;11.566;2023-11-21T07:37:41;7.65;82.34
63202;DHT22;49296;48.188;11.566;2023-11-21T07:40:08;7.75;82.09
63202;DHT22;49296;48.188;11.566;2023-11-21T07:42:36;7.77;81.79
63202;DHT22;49296;48.188;11.566;2023-11-21T07:45:03;7.77;81.90
63202;DHT22;49296;48.188;11.566;2023-11-21T07:47:29;7.68;81.91
63202;DHT22;49296;48.188;11.566;2023-11-21T07:50:01;7.75;81.84
63202;DHT22;49296;48.188;11.566;2023-11-21T07:52:28;7.82;81.36
63202;DHT22;49296;48.188;11.566;2023-11-21T07:54:54;7.72;81.66
63202;DHT22;49296;48.188;11.566;2023-11-21T07:57:21;7.74;81.64
63202;DHT22;49296;48.188;11.566;2023-11-21T07:59:47;7.77;81.43
63202;DHT22;49296;48.188;11.566;2023-11-21T08:02:14;7.96;81.03
63202;DHT22;49296;48.188;11.566;2023-11-21T08:04:41;7.78;81.07
63202;DHT22;49296;48.188;11.566;2023-11-21T08:07:09;7.86;81.09
63202;DHT22;49296;48.188;11.566;2023-11-21T08:09:36;8.06;81.01
63202;DHT22;49296;48.188;11.566;2023-11-21T08:12:03;8.06;80.83
63202;DHT22;49296;48.188;11.566;2023-11-21T08:14:30;8.05;80.76
63202;DHT22;49296;48.188;11.566;2023-11-21T08:16:56;8.00;80.48
63202;DHT22;49296;48.188;11.566;2023-11-21T08:19:22;7.95;80.81
63202;DHT22;49296;48.188;11.566;2023-11-21T08:21:50;7.96;80.75
63202;DHT22;49296;48.188;11.566;2023-11-21T08:24:17;7.95;81.25
63202;DHT22;49296;48.188;11.566;2023-11-21T08:26:44;8.03;81.12
63202;DHT22;49296;48.188;11.566;2023-11-21T08:29:10;8.12;80.80
63202;DHT22;49296;48.188;11.566;2023-11-21T08:31:37;8.17;80.59
63202;DHT22;49296;48.188;11.566;2023-11-21T08:34:03;8.29;80.57
63202;DHT22;49296;48.188;11.566;2023-11-21T08:36:30;8.13;80.66
63202;DHT22;49296;48.188;11.566;2023-11-21T08:38:56;8.22;80.33
63202;DHT22;49296;48.188;11.566;2023-11-21T08:41:24;8.26;80.33
63202;DHT22;49296;48.188;11.566;2023-11-21T08:43:53;8.20;80.70
63202;DHT22;49296;48.188;11.566;2023-11-21T08:46:20;8.26;80.66
63202;DHT22;49296;48.188;11.566;2023-11-21T08:48:46;8.30;80.39
63202;DHT22;49296;48.188;11.566;2023-11-21T08:51:13;8.33;80.12
63202;DHT22;49296;48.188;11.566;2023-11-21T08:53:40;8.37;80.06
63202;DHT22;49296;48.188;11.566;2023-11-21T08:56:08;8.24;80.47
63202;DHT22;49296;48.188;11.566;2023-11-21T08:58:39;8.22;80.69
63202;DHT22;49296;48.188;11.566;2023-11-21T09:01:06;8.14;80.72
63202;DHT22;49296;48.188;11.566;2023-11-21T09:03:33;8.16;80.56
63202;DHT22;49296;48.188;11.566;2023-11-21T09:05:59;8.29;80.37
63202;DHT22;49296;48.188;11.566;2023-11-21T09:08:26;8.13;80.83
63202;DHT22;49296;48.188;11.566;2023-11-21T09:10:54;8.33;80.90
63202;DHT22;49296;48.188;11.566;2023-11-21T09:13:21;8.23;81.04
63202;DHT22;49296;48.188;11.566;2023-11-21T09:15:48;8.19;80.98
63202;DHT22;49296;48.188;11.566;2023-11-21T09:18:15;8.02;81.30
63202;DHT22;49296;48.188;11.566;2023-11-21T09:20:42;8.02;81.64
63202;DHT22;49296;48.188;11.566;2023-11-21T09:23:09;7.92;81.46
63202;DHT22;49296;48.188;11.566;2023-11-21T09:25:35;7.92;81.86
63202;DHT22;49296;48.188;11.566;2023-11-21T09:28:02;8.07;81.64
63202;DHT22;49296;48.188;11.566;2023-11-21T09:30:30;8.14;81.58
63202;DHT22;49296;48.188;11.566;2023-11-21T09:32:58;8.17;81.65
63202;DHT22;49296;48.188;11.566;2023-11-21T09:35:25;8.29;81.24
63202;DHT22;49296;48.188;11.566;2023-11-21T09:37:53;8.47;81.24
63202;DHT22;49296;48.188;11.566;2023-11-21T09:40:20;8.57;80.96
63202;DHT22;49296;48.188;11.566;2023-11-21T09:42:49;8.62;80.77
63202;DHT22;49296;48.188;11.566;2023-11-21T09:45:19;8.45;80.88
63202;DHT22;49296;48.188;11.566;2023-11-21T09:47:48;8.50;80.96
63202;DHT22;49296;48.188;11.566;2023-11-21T09:50:17;8.69;80.86
63202;DHT22;49296;48.188;11.566;2023-11-21T09:52:48;8.76;80.75
63202;DHT22;49296;48.188;11.566;2023-11-21T09:55:15;8.80;80.69
63202;DHT22;49296;48.188;11.566;2023-11-21T09:57:44;8.76;80.63
63202;DHT22;49296;48.188;11.566;2023-11-21T10:00:11;8.80;80.57
63202;DHT22;49296;48.188;11.566;2023-11-21T10:02:40;8.90;80.36
63202;DHT22;49296;48.188;11.566;2023-11-21T10:05:07;8.97;80.17
63202;DHT22;49296;48.188;11.566;2023-11-21T10:07:36;9.03;80.18
63202;DHT22;49296;48.188;11.566;2023-11-21T10:10:03;9.02;80.29
63202;DHT22;49296;48.188;11.566;2023-11-21T10:12:30;8.95;80.24
63202;DHT22;49296;48.188;11.566;2023-11-21T10:14:58;9.19;79.97
63202;DHT22;49296;48.188;11.566;2023-11-21T10:17:25;9.35;79.39
63202;DHT22;49296;48.188;11.566;2023-11-21T10:19:55;9.16;79.72
63202;DHT22;49296;48.188;11.566;2023-11-21T10:22:22;9.10;80.04
63202;DHT22;49296;48.188;11.566;2023-11-21T10:24:50;9.26;79.90
63202;DHT22;49296;48.188;11.566;2023-11-21T10:27:16;9.30;79.75
63202;DHT22;49296;48.188;11.566;2023-11-21T10:29:43;9.34;79.55
63202;DHT22;49296;48.188;11.566;2023-11-21T10:32:10;9.27;79.64
63202;DHT22;49296;48.188;11.566;2023-11-21T10:34:38;9.00;80.34
63202;DHT22;49296;48.188;11.566;2023-11-21T10:37:15;9.09;80.42
63202;DHT22;49296;48.188;11.566;2023-11-21T10:39:41;9.20;80.13
63202;DHT22;49296;48.188;11.566;2023-11-21T10:42:10;9.37;79.84
63202;DHT22;49296;48.188;11.566;2023-11-21T10:44:36;9.42;79.54
63202;DHT22;49296;48.188;11.566;2023-11-21T10:47:03;9.42;79.79
63202;DHT22;49296;48.188;11.566;2023-11-21T10:49:30;9.54;79.68
63202;DHT22;49296;48.188;11.566;2023-11-21T10:51:56;9.35;79.70
63202;DHT22;49296;48.188;11.566;2023-11-21T10:54:23;9.37;79.99
63202;DHT22;49296;48.188;11.566;2023-11-21T10:56:50;9.38;79.61
63202;DHT22;49296;48.188;11.566;2023-11-21T10:59:22;9.48;79.88
63202;DHT22;49296;48.188;11.566;2023-11-21T11:01:51;9.44;79.89
63202;DHT22;49296;48.188;11.566;2023-11-21T11:04:18;9.26;80.34
63202;DHT22;49296;48.188;11.566;2023-11-21T11:06:44;9.37;80.28
63202;DHT22;49296;48.188;11.566;2023-11-21T11:09:12;9.44;79.92
63202;DHT22;49296;48.188;11.566;2023-11-21T11:11:39;9.52;80.02
63202;DHT22;49296;48.188;11.566;2023-11-21T11:14:06;9.47;79.93
63202;DHT22;49296;48.188;11.566;2023-11-21T11:16:34;9.54;79.94
63202;DHT22;49296;48.188;11.566;2023-11-21T11:19:02;9.56;80.27
63202;DHT22;49296;48.188;11.566;2023-11-21T11:21:31;9.44;79.36
63202;DHT22;49296;48.188;11.566;2023-11-21T11:24:05;9.35;79.42
63202;DHT22;49296;48.188;11.566;2023-11-21T11:26:39;9.35;79.18
63202;DHT22;49296;48.188;11.566;2023-11-21T11:29:10;9.45;79.24
63202;DHT22;49296;48.188;11.566;2023-11-21T11:31:44;9.34;79.27
63202;DHT22;49296;48.188;11.566;2023-11-21T11:34:16;9.42;79.09
63202;DHT22;49296;48.188;11.566;2023-11-21T11:36:48;9.32;78.83
63202;DHT22;49296;48.188;11.566;2023-11-21T11:39:27;9.27;79.27
63202;DHT22;49296;48.188;11.566;2023-11-21T11:41:54;9.28;78.95
63202;DHT22;49296;48.188;11.566;2023-11-21T11:47:14;9.27;79.53
63202;DHT22;49296;48.188;11.566;2023-11-21T11:49:54;9.42;79.32
63202;DHT22;49296;48.188;11.566;2023-11-21T11:52:37;9.55;78.72
63202;DHT22;49296;48.188;11.566;2023-11-21T11:55:05;9.54;78.77
63202;DHT22;49296;48.188;11.566;2023-11-21T11:57:34;9.71;78.33
63202;DHT22;49296;48.188;11.566;2023-11-21T12:00:14;9.61;78.42
63202;DHT22;49296;48.188;11.566;2023-11-21T12:02:47;9.85;77.81
63202;DHT22;49296;48.188;11.566;2023-11-21T12:05:14;9.76;77.45
63202;DHT22;49296;48.188;11.566;2023-11-21T12:07:42;9.93;77.64
63202;DHT22;49296;48.188;11.566;2023-11-21T12:10:10;10.00;77.38
63202;DHT22;49296;48.188;11.566;2023-11-21T12:12:37;9.99;77.19
63202;DHT22;49296;48.188;11.566;2023-11-21T12:15:04;10.13;77.05
63202;DHT22;49296;48.188;11.566;2023-11-21T12:17:31;10.10;77.01
63202;DHT22;49296;48.188;11.566;2023-11-21T12:20:02;10.10;76.81
63202;DHT22;49296;48.188;11.566;2023-11-21T12:22:30;10.01;77.30
63202;DHT22;49296;48.188;11.566;2023-11-21T12:24:57;10.04;77.37
63202;DHT22;49296;48.188;11.566;2023-11-21T12:27:23;10.07;77.33
63202;DHT22;49296;48.188;11.566;2023-11-21T12:29:49;10.25;77.10
63202;DHT22;49296;48.188;11.566;2023-11-21T12:32:16;10.22;77.09
63202;DHT22;49296;48.188;11.566;2023-11-21T12:34:43;9.83;78.32
63202;DHT22;49296;48.188;11.566;2023-11-21T12:37:11;9.99;78.46
63202;DHT22;49296;48.188;11.566;2023-11-21T12:39:38;9.94;78.13
63202;DHT22;49296;48.188;11.566;2023-11-21T12:42:04;10.07;77.81
63202;DHT22;49296;48.188;11.566;2023-11-21T12:44:31;10.22;77.73
63202;DHT22;49296;48.188;11.566;2023-11-21T12:46:58;9.94;77.58
63202;DHT22;49296;48.188;11.566;2023-11-21T12:49:26;9.82;77.96
63202;DHT22;49296;48.188;11.566;2023-11-21T12:51:53;9.75;78.18
63202;DHT22;49296;48.188;11.566;2023-11-21T12:54:21;9.51;78.50
63202;DHT22;49296;48.188;11.566;2023-11-21T12:56:49;9.59;78.57
63202;DHT22;49296;48.188;11.566;2023-11-21T12:59:16;9.61;78.60
63202;DHT22;49296;48.188;11.566;2023-11-21T13:01:43;9.55;78.46
63202;DHT22;49296;48.188;11.566;2023-11-21T13:04:10;9.85;78.30
63202;DHT22;49296;48.188;11.566;2023-11-21T13:06:37;9.96;78.23
63202;DHT22;49296;48.188;11.566;2023-11-21T13:09:08;9.79;78.30
63202;DHT22;49296;48.188;11.566;2023-11-21T13:11:37;9.87;78.46
63202;DHT22;49296;48.188;11.566;2023-11-21T13:14:06;9.89;79.36
63202;DHT22;49296;48.188;11.566;2023-11-21T13:16:32;9.69;79.66
63202;DHT22;49296;48.188;11.566;2023-11-21T13:18:58;9.42;80.01
63202;DHT22;49296;48.188;11.566;2023-11-21T13:21:25;9.47;80.39
63202;DHT22;49296;48.188;11.566;2023-11-21T13:23:52;9.35;80.69
63202;DHT22;49296;48.188;11.566;2023-11-21T13:26:19;9.34;81.12
63202;DHT22;49296;48.188;11.566;2023-11-21T13:28:49;9.38;81.60
63202;DHT22;49296;48.188;11.566;2023-11-21T13:31:16;9.49;81.45
63202;DHT22;49296;48.188;11.566;2023-11-21T13:33:52;9.69;81.06
63202;DHT22;49296;48.188;11.566;2023-11-21T13:36:21;9.51;81.45
63202;DHT22;49296;48.188;11.566;2023-11-21T13:38:48;9.63;81.43
63202;DHT22;49296;48.188;11.566;2023-11-21T13:41:15;9.68;81.24
63202;DHT22;49296;48.188;11.566;2023-11-21T13:43:43;9.79;80.69
63202;DHT22;49296;48.188;11.566;2023-11-21T13:46:15;9.76;80.74
63202;DHT22;49296;48.188;11.566;2023-11-21T13:48:46;9.93;80.38
63202;DHT22;49296;48.188;11.566;2023-11-21T13:51:15;9.63;80.15
63202;DHT22;49296;48.188;11.566;2023-11-21T13:53:43;9.35;80.87
63202;DHT22;49296;48.188;11.566;2023-11-21T13:56:10;9.17;81.52
63202;DHT22;49296;48.188;11.566;2023-11-21T13:58:38;9.30;81.43
63202;DHT22;49296;48.188;11.566;2023-11-21T14:01:11;9.17;81.41
63202;DHT22;49296;48.188;11.566;2023-11-21T14:03:59;9.02;81.44
63202;DHT22;49296;48.188;11.566;2023-11-21T14:06:33;8.65;82.37
63202;DHT22;49296;48.188;11.566;2023-11-21T14:09:07;8.86;82.63
63202;DHT22;49296;48.188;11.566;2023-11-21T14:11:34;8.79;82.63
63202;DHT22;49296;48.188;11.566;2023-11-21T14:14:03;8.71;82.74
63202;DHT22;49296;48.188;11.566;2023-11-21T14:16:30;8.51;82.82
63202;DHT22;49296;48.188;11.566;2023-11-21T14:18:58;8.57;83.41
63202;DHT22;49296;48.188;11.566;2023-11-21T14:21:31;8.73;82.55
63202;DHT22;49296;48.188;11.566;2023-11-21T14:23:58;8.90;82.46
63202;DHT22;49296;48.188;11.566;2023-11-21T14:26:25;8.62;82.54
63202;DHT22;49296;48.188;11.566;2023-11-21T14:28:54;8.58;82.85
63202;DHT22;49296;48.188;11.566;2023-11-21T14:31:22;8.71;82.24
63202;DHT22;49296;48.188;11.566;2023-11-21T14:33:49;8.64;82.49
63202;DHT22;49296;48.188;11.566;2023-11-21T14:36:17;8.80;82.56
63202;DHT22;49296;48.188;11.566;2023-11-21T14:38:43;8.97;82.61
63202;DHT22;49296;48.188;11.566;2023-11-21T14:41:10;9.10;82.53
63202;DHT22;49296;48.188;11.566;2023-11-21T14:43:36;9.16;82.44
63202;DHT22;49296;48.188;11.566;2023-11-21T14:46:04;9.13;82.32
63202;DHT22;49296;48.188;11.566;2023-11-21T14:48:33;9.03;82.55
63202;DHT22;49296;48.188;11.566;2023-11-21T14:51:07;8.92;83.24
63202;DHT22;49296;48.188;11.566;2023-11-21T14:53:54;8.92;83.29
63202;DHT22;49296;48.188;11.566;2023-11-21T14:56:19;8.89;83.41
63202;DHT22;49296;48.188;11.566;2023-11-21T14:58:52;8.50;83.60
63202;DHT22;49296;48.188;11.566;2023-11-21T15:01:17;8.54;83.98
63202;DHT22;49296;48.188;11.566;2023-11-21T15:03:52;8.73;83.29
63202;DHT22;49296;48.188;11.566;2023-11-21T15:06:18;8.85;83.35
63202;DHT22;49296;48.188;11.566;2023-11-21T15:08:52;8.99;82.98
63202;DHT22;49296;48.188;11.566;2023-11-21T15:11:23;8.89;82.58
63202;DHT22;49296;48.188;11.566;2023-11-21T15:13:55;8.87;82.92
63202;DHT22;49296;48.188;11.566;2023-11-21T15:16:22;8.92;82.68
63202;DHT22;49296;48.188;11.566;2023-11-21T15:18:48;8.89;82.50
63202;DHT22;49296;48.188;11.566;2023-11-21T15:21:15;9.09;82.28
63202;DHT22;49296;48.188;11.566;2023-11-21T15:23:41;9.00;82.39
63202;DHT22;49296;48.188;11.566;2023-11-21T15:26:07;9.20;81.91
63202;DHT22;49296;48.188;11.566;2023-11-21T15:28:36;9.19;81.85
63202;DHT22;49296;48.188;11.566;2023-11-21T15:31:03;9.20;81.30
63202;DHT22;49296;48.188;11.566;2023-11-21T15:33:29;9.16;81.76
63202;DHT22;49296;48.188;11.566;2023-11-21T15:35:56;9.13;82.75